Terminal Aerodrome Forecast
Issued by NWS

Home | Current Version | Previous Version | Text Only | Print | Product List | Glossary On
Versions: 1 2 3 4 5 6 7 8 9 10 11 12 13 14 15 16 17 18 19 20 21 22 23 24 25 26 27 28 29 30 31 32 33 34 35 36
233
FTUS43 KGLD 030520
TAFMCK
TAF
KMCK 030520Z 0306/0406 VRB04KT P6SM BKN070
     FM031700 19007KT P6SM FEW035
     FM040400 22006KT P6SM SCT150
     FM040500 26006KT P6SM SCT120=

USA.gov is the U.S. government's official web portal to all federal, state and local government web resources and services.